createdAt,value
2018-09-17T00:02:12.405Z,70.11
2018-09-17T00:04:41.707Z,70.29
2018-09-17T00:07:11.051Z,69.54
2018-09-17T00:09:40.781Z,70.32
2018-09-17T00:12:10.055Z,69.19
2018-09-17T00:14:40.490Z,70.12
2018-09-17T00:17:09.863Z,70.38
2018-09-17T00:19:39.158Z,69.62
2018-09-17T00:22:09.447Z,70.96
2018-09-17T00:24:38.742Z,71.04
2018-09-17T00:27:08.639Z,71.52
2018-09-17T00:29:37.934Z,72.10
2018-09-17T00:32:07.632Z,71.58
2018-09-17T00:34:36.908Z,71.12
2018-09-17T00:37:06.539Z,72.03
2018-09-17T00:39:35.853Z,71.46
2018-09-17T00:42:05.149Z,71.66
2018-09-17T00:44:34.444Z,71.51
2018-09-17T00:47:03.778Z,71.94
2018-09-17T00:49:33.063Z,72.20
2018-09-17T00:52:02.677Z,72.10
2018-09-17T00:54:32.049Z,72.15
2018-09-17T00:57:01.430Z,72.59
2018-09-17T00:59:30.715Z,72.67
2018-09-17T01:02:00.394Z,73.16
2018-09-17T01:04:29.678Z,73.05
2018-09-17T01:06:58.992Z,73.30
2018-09-17T01:09:33.557Z,73.14
2018-09-17T01:12:02.866Z,72.78
2018-09-17T01:14:34.314Z,73.10
2018-09-17T01:17:03.938Z,73.68
2018-09-17T01:19:33.291Z,73.29
2018-09-17T01:22:02.642Z,73.52
2018-09-17T01:24:32.235Z,74.47
2018-09-17T01:27:01.985Z,73.68
2018-09-17T01:29:31.286Z,74.41
2018-09-17T01:32:00.571Z,74.23
2018-09-17T01:34:30.463Z,74.45
2018-09-17T01:36:59.798Z,74.85
2018-09-17T01:39:29.140Z,74.49
2018-09-17T01:41:59.446Z,75.24
2018-09-17T01:44:29.044Z,75.45
2018-09-17T01:46:58.388Z,75.68
2018-09-17T01:49:27.725Z,75.50
2018-09-17T01:51:57.071Z,75.29
2018-09-17T01:54:26.427Z,75.76
2018-09-17T01:56:55.726Z,75.50
2018-09-17T01:59:25.572Z,75.27
2018-09-17T02:01:55.069Z,74.73
2018-09-17T02:04:24.407Z,74.87
2018-09-17T02:06:53.720Z,75.57
2018-09-17T02:09:23.417Z,76.20
2018-09-17T02:11:52.727Z,76.04
2018-09-17T02:14:22.019Z,75.64
2018-09-17T02:16:53.038Z,76.50
2018-09-17T02:19:22.396Z,76.29
2018-09-17T02:21:53.231Z,76.76
2018-09-17T02:24:22.666Z,76.65
2018-09-17T02:26:51.978Z,76.47
2018-09-17T02:29:21.387Z,77.22
2018-09-17T02:31:50.736Z,77.27
2018-09-17T02:34:20.018Z,76.26
2018-09-17T02:36:49.327Z,76.51
2018-09-17T02:39:18.642Z,75.43
2018-09-17T02:41:48.247Z,76.86
2018-09-17T02:44:17.682Z,76.08
2018-09-17T02:46:46.994Z,76.18
2018-09-17T02:49:16.320Z,76.74
2018-09-17T02:51:45.653Z,76.79
2018-09-17T02:54:15.013Z,77.04
2018-09-17T02:56:45.390Z,77.22
2018-09-17T02:59:14.742Z,77.09
2018-09-17T03:01:44.255Z,77.13
2018-09-17T03:04:13.890Z,76.86
2018-09-17T03:06:43.183Z,77.02
2018-09-17T03:09:12.516Z,76.98
2018-09-17T03:11:41.834Z,77.32
2018-09-17T03:14:11.188Z,77.21
2018-09-17T03:16:51.691Z,77.99
2018-09-17T03:19:21.044Z,77.92
2018-09-17T03:21:50.335Z,77.85
2018-09-17T03:24:19.697Z,78.01
2018-09-17T03:26:49.358Z,78.17
2018-09-17T03:29:18.674Z,77.87
2018-09-17T03:31:47.975Z,77.42
2018-09-17T03:34:17.738Z,77.51
2018-09-17T03:36:47.065Z,78.43
2018-09-17T03:39:16.368Z,77.67
2018-09-17T03:41:46.069Z,77.97
2018-09-17T03:44:15.796Z,77.82
2018-09-17T03:46:46.383Z,77.89
2018-09-17T03:49:15.569Z,77.15
2018-09-17T03:51:44.889Z,77.16
2018-09-17T03:54:14.616Z,78.10
2018-09-17T03:56:43.980Z,77.30
2018-09-17T03:59:13.333Z,78.08
2018-09-17T04:01:42.654Z,77.87
2018-09-17T04:04:11.985Z,77.31
2018-09-17T04:06:41.270Z,77.56
2018-09-17T04:09:11.535Z,77.54
2018-09-17T04:11:41.912Z,78.58
2018-09-17T04:14:11.243Z,78.54
2018-09-17T04:16:41.446Z,78.29
2018-09-17T04:19:11.187Z,78.12
2018-09-17T04:21:40.518Z,78.49
2018-09-17T04:24:09.842Z,77.63
2018-09-17T04:26:39.254Z,78.25
2018-09-17T04:29:09.228Z,77.38
2018-09-17T04:31:38.667Z,78.55
2018-09-17T04:34:08.209Z,78.08
2018-09-17T04:36:37.551Z,78.30
2018-09-17T04:39:09.810Z,78.58
2018-09-17T04:41:39.762Z,78.28
2018-09-17T04:44:09.081Z,78.86
2018-09-17T04:46:38.947Z,79.53
2018-09-17T04:49:08.222Z,78.27
2018-09-17T04:51:37.579Z,78.83
2018-09-17T04:54:06.884Z,79.26
2018-09-17T04:56:36.551Z,79.07
2018-09-17T04:59:05.910Z,78.83
2018-09-17T05:01:35.231Z,78.18
2018-09-17T05:04:04.975Z,78.83
2018-09-17T05:06:34.262Z,79.52
2018-09-17T05:09:04.373Z,80.11
2018-09-17T05:11:33.725Z,79.31
2018-09-17T05:14:03.402Z,79.69
2018-09-17T05:16:32.814Z,80.23
2018-09-17T05:19:02.208Z,79.73
2018-09-17T05:21:31.643Z,80.41
2018-09-17T05:24:01.328Z,80.08
2018-09-17T05:26:30.675Z,79.64
2018-09-17T05:29:00.318Z,79.75
2018-09-17T05:31:29.632Z,80.13
2018-09-17T05:33:59.244Z,80.10
2018-09-17T05:36:28.862Z,79.39
2018-09-17T05:38:59.774Z,79.55
2018-09-17T05:41:29.227Z,79.37
2018-09-17T05:43:59.093Z,79.26
2018-09-17T05:46:28.413Z,79.41
2018-09-17T05:48:57.786Z,79.23
2018-09-17T05:51:28.046Z,79.30
2018-09-17T05:53:58.142Z,78.75
2018-09-17T05:56:27.392Z,79.06
2018-09-17T05:59:04.181Z,79.60
2018-09-17T06:01:33.998Z,80.06
2018-09-17T06:04:03.879Z,79.56
2018-09-17T06:06:34.325Z,80.06
2018-09-17T06:09:04.775Z,79.08
2018-09-17T06:11:34.138Z,78.74
2018-09-17T06:14:03.559Z,78.58
2018-09-17T06:16:33.578Z,78.15
2018-09-17T06:19:02.881Z,77.08
2018-09-17T06:21:33.838Z,76.65
2018-09-17T06:24:03.574Z,76.41
2018-09-17T06:26:33.013Z,75.95
2018-09-17T06:29:02.474Z,75.17
2018-09-17T06:31:32.726Z,76.03
2018-09-17T06:34:02.042Z,74.93
2018-09-17T06:36:31.389Z,74.91
2018-09-17T06:39:01.167Z,75.15
2018-09-17T06:41:30.584Z,75.63
2018-09-17T06:44:02.747Z,75.58
2018-09-17T06:46:32.306Z,75.08
2018-09-17T06:49:01.967Z,74.82
2018-09-17T06:51:32.432Z,74.82
2018-09-17T06:54:01.788Z,73.20
2018-09-17T06:56:31.267Z,72.37
2018-09-17T06:59:04.687Z,71.14
2018-09-17T07:01:34.230Z,71.13
2018-09-17T07:04:05.244Z,68.92
2018-09-17T07:06:38.770Z,67.33
2018-09-17T07:09:10.412Z,69.77
2018-09-17T07:11:40.904Z,68.85
2018-09-17T07:14:11.655Z,67.54
2018-09-17T07:16:42.166Z,64.53
2018-09-17T07:19:11.524Z,63.76
2018-09-17T07:21:41.459Z,63.85
2018-09-17T07:24:10.786Z,58.49
2018-09-17T07:26:41.352Z,58.31
2018-09-17T07:29:11.560Z,56.92
2018-09-17T07:31:42.462Z,54.29
2018-09-17T07:34:11.807Z,54.35
2018-09-17T07:36:41.174Z,52.96
2018-09-17T07:39:11.860Z,55.19
2018-09-17T07:44:51.037Z,53.38
2018-09-17T07:47:20.346Z,52.84
2018-09-17T07:49:49.670Z,51.67
2018-09-17T07:52:18.994Z,51.51
2018-09-17T07:54:48.759Z,50.10
2018-09-17T07:57:18.056Z,50.84
2018-09-17T07:59:47.863Z,49.93
2018-09-17T08:02:17.136Z,49.54
2018-09-17T08:04:50.096Z,50.97
2018-09-17T08:07:19.423Z,50.83
2018-09-17T08:09:48.739Z,52.60
2018-09-17T08:12:19.013Z,52.54
2018-09-17T08:14:52.575Z,52.88
2018-09-17T08:17:22.596Z,52.65
2018-09-17T08:19:53.083Z,50.82
2018-09-17T08:22:38.763Z,51.25
2018-09-17T08:25:10.500Z,53.30
2018-09-17T08:27:42.450Z,52.39
2018-09-17T08:30:17.034Z,51.80
2018-09-17T08:32:50.407Z,51.35
2018-09-17T08:35:20.607Z,51.15
2018-09-17T08:37:53.467Z,51.45
2018-09-17T08:40:23.794Z,51.25
2018-09-17T08:42:55.550Z,50.22
2018-09-17T08:45:27.172Z,51.18
2018-09-17T08:47:59.335Z,51.39
2018-09-17T08:50:30.291Z,51.66
2018-09-17T08:53:01.836Z,49.98
2018-09-17T08:55:37.152Z,49.83
2018-09-17T08:58:13.418Z,51.02
2018-09-17T09:00:49.170Z,51.37
2018-09-17T09:03:26.687Z,52.21
2018-09-17T09:06:01.449Z,50.58
2018-09-17T09:08:34.008Z,50.73
2018-09-17T09:11:13.232Z,50.09
2018-09-17T09:13:49.311Z,50.37
2018-09-17T09:19:56.220Z,50.40
2018-09-17T09:22:26.225Z,50.27
2018-09-17T09:24:56.130Z,49.91
2018-09-17T09:27:30.696Z,49.64
2018-09-17T09:30:02.549Z,49.02
2018-09-17T09:32:33.175Z,48.44
2018-09-17T09:35:03.455Z,47.79
2018-09-17T09:37:36.825Z,47.69
2018-09-17T09:40:09.326Z,48.69
2018-09-17T09:42:41.600Z,48.39
2018-09-17T09:45:12.625Z,47.89
2018-09-17T09:47:45.041Z,47.13
2018-09-17T09:50:15.739Z,47.47
2018-09-17T09:52:47.327Z,47.87
2018-09-17T09:55:18.124Z,47.40
2018-09-17T09:57:48.452Z,45.56
2018-09-17T10:08:03.982Z,44.15
2018-09-17T10:10:38.369Z,44.24
2018-09-17T10:13:14.493Z,44.50
2018-09-17T10:15:49.411Z,43.92
2018-09-17T10:18:25.255Z,43.63
2018-09-17T10:20:56.006Z,44.43
2018-09-17T10:23:25.278Z,43.40
2018-09-17T10:25:57.383Z,43.66
2018-09-17T10:28:28.242Z,43.69
2018-09-17T10:30:57.579Z,43.26
2018-09-17T10:33:34.676Z,43.70
2018-09-17T10:36:07.592Z,42.70
2018-09-17T10:38:43.697Z,43.51
2018-09-17T10:41:17.265Z,44.14
2018-09-17T10:43:49.602Z,43.83
2018-09-17T10:46:19.839Z,44.58
2018-09-17T10:48:50.445Z,45.01
2018-09-17T10:51:20.851Z,42.34
2018-09-17T10:53:53.121Z,44.92
2018-09-17T10:56:24.222Z,42.73
2018-09-17T10:58:56.923Z,42.59
2018-09-17T11:01:26.266Z,45.44
2018-09-17T11:03:59.819Z,43.12
2018-09-17T11:06:30.301Z,42.97
2018-09-17T11:09:04.404Z,42.44
2018-09-17T11:11:38.269Z,43.61
2018-09-17T11:14:09.288Z,41.69
2018-09-17T11:16:39.391Z,41.01
2018-09-17T11:19:10.069Z,42.27
2018-09-17T11:21:39.407Z,41.86
2018-09-17T11:24:09.760Z,42.45
2018-09-17T11:26:41.862Z,42.81
2018-09-17T11:29:12.589Z,42.10
2018-09-17T11:31:42.565Z,42.25
2018-09-17T11:34:15.068Z,40.32
2018-09-17T11:36:48.697Z,39.86
2018-09-17T11:39:20.387Z,40.53
2018-09-17T11:41:51.025Z,40.83
2018-09-17T11:44:21.226Z,39.86
2018-09-17T11:46:50.836Z,41.07
2018-09-17T11:49:20.214Z,41.17
2018-09-17T11:51:51.638Z,39.86
2018-09-17T11:54:23.478Z,40.71
2018-09-17T11:56:54.436Z,40.19
2018-09-17T11:59:25.863Z,40.44
2018-09-17T12:02:03.125Z,40.09
2018-09-17T12:04:37.177Z,41.37
2018-09-17T12:13:06.477Z,40.68
2018-09-17T12:15:40.733Z,40.19
2018-09-17T12:18:12.398Z,41.56
2018-09-17T12:20:41.673Z,40.41
2018-09-17T12:23:12.096Z,39.08
2018-09-17T12:25:43.932Z,40.01
2018-09-17T12:28:13.242Z,40.70
2018-09-17T12:30:45.253Z,40.74
2018-09-17T12:33:14.550Z,41.41
2018-09-17T12:35:44.236Z,41.80
2018-09-17T12:38:13.542Z,42.22
2018-09-17T12:40:43.755Z,41.98
2018-09-17T12:43:13.933Z,42.64
2018-09-17T12:45:45.614Z,43.27
2018-09-17T12:48:15.871Z,43.35
2018-09-17T12:50:47.225Z,43.80
2018-09-17T12:53:17.934Z,44.61
2018-09-17T12:55:48.491Z,44.34
2018-09-17T12:58:20.396Z,43.94
2018-09-17T13:00:50.754Z,45.51
2018-09-17T13:03:24.325Z,44.71
2018-09-17T13:05:56.501Z,46.05
2018-09-17T13:08:25.798Z,44.66
2018-09-17T13:10:55.820Z,44.69
2018-09-17T13:13:25.233Z,42.89
2018-09-17T13:15:56.061Z,43.58
2018-09-17T13:18:26.482Z,43.36
2018-09-17T13:21:00.273Z,43.89
2018-09-17T13:23:31.263Z,43.49
2018-09-17T13:26:03.123Z,43.75
2018-09-17T13:28:32.510Z,43.92
2018-09-17T13:31:02.802Z,45.05
2018-09-17T13:33:32.065Z,45.25
2018-09-17T13:36:02.645Z,43.61
2018-09-17T13:38:31.987Z,44.89
2018-09-17T13:41:02.787Z,43.36
2018-09-17T13:43:33.440Z,43.91
2018-09-17T13:46:03.472Z,43.43
2018-09-17T13:48:32.778Z,42.26
2018-09-17T13:51:03.449Z,43.50
2018-09-17T13:53:32.848Z,42.88
2018-09-17T13:56:04.431Z,40.84
2018-09-17T13:58:34.798Z,42.03
2018-09-17T14:01:06.095Z,43.33
2018-09-17T14:03:38.446Z,41.55
2018-09-17T14:06:09.398Z,42.44
2018-09-17T14:08:39.310Z,40.95
2018-09-17T14:11:11.742Z,42.10
2018-09-17T14:13:41.698Z,42.53
2018-09-17T14:16:12.220Z,42.48
2018-09-17T14:18:41.563Z,41.66
2018-09-17T14:21:12.097Z,42.41
2018-09-17T14:23:42.823Z,42.37
2018-09-17T14:26:15.708Z,42.44
2018-09-17T14:28:46.942Z,43.65
2018-09-17T14:31:22.399Z,42.79
2018-09-17T14:34:02.448Z,42.97
2018-09-17T14:39:39.294Z,44.25
2018-09-17T14:42:14.524Z,42.02
2018-09-17T14:44:48.763Z,40.90
2018-09-17T14:47:27.519Z,40.67
2018-09-17T14:50:00.649Z,40.85
2018-09-17T14:52:38.407Z,41.09
2018-09-17T14:55:10.942Z,41.89
2018-09-17T14:57:42.805Z,41.09
2018-09-17T15:00:14.449Z,41.48
2018-09-17T15:02:48.352Z,42.31
2018-09-17T15:05:38.120Z,42.53
2018-09-17T15:08:08.855Z,42.21
2018-09-17T15:10:38.153Z,40.85
2018-09-17T15:13:08.766Z,40.50
2018-09-17T15:15:45.704Z,42.63
2018-09-17T15:18:17.815Z,41.74
2018-09-17T15:20:52.410Z,41.85
2018-09-17T15:23:24.764Z,43.10
2018-09-17T15:25:55.275Z,41.47
2018-09-17T15:28:26.737Z,41.65
2018-09-17T15:30:58.709Z,41.38
2018-09-17T15:33:29.666Z,43.52
2018-09-17T15:35:59.558Z,42.40
2018-09-17T15:38:30.542Z,41.82
2018-09-17T15:41:00.707Z,41.50
2018-09-17T15:43:32.364Z,40.77
2018-09-17T15:46:02.405Z,41.02
2018-09-17T15:48:33.479Z,40.32
2018-09-17T15:51:04.135Z,38.99
2018-09-17T15:53:34.371Z,39.47
2018-09-17T15:56:06.412Z,40.59
2018-09-17T15:58:38.000Z,40.90
2018-09-17T16:01:09.414Z,41.41
2018-09-17T16:03:38.714Z,40.93
2018-09-17T16:06:10.985Z,40.87
2018-09-17T16:08:46.693Z,42.42
2018-09-17T16:11:17.144Z,42.64
2018-09-17T16:13:48.919Z,42.32
2018-09-17T16:16:19.530Z,41.57
2018-09-17T16:18:52.359Z,43.25
2018-09-17T16:21:22.850Z,43.84
2018-09-17T16:23:52.491Z,44.01
2018-09-17T16:26:21.787Z,44.21
2018-09-17T16:28:53.997Z,45.67
2018-09-17T16:31:23.340Z,45.64
2018-09-17T16:33:55.503Z,45.92
2018-09-17T16:36:25.891Z,46.08
2018-09-17T16:38:56.155Z,46.32
2018-09-17T16:41:25.568Z,46.42
2018-09-17T16:43:55.195Z,47.54
2018-09-17T16:46:24.565Z,46.86
2018-09-17T16:48:57.501Z,47.39
2018-09-17T16:51:27.839Z,48.26
2018-09-17T16:53:58.654Z,47.46
2018-09-17T16:56:29.182Z,48.71
2018-09-17T16:58:59.976Z,49.83
2018-09-17T17:01:29.935Z,48.61
2018-09-17T17:03:59.952Z,49.66
2018-09-17T17:06:29.256Z,50.40
2018-09-17T17:08:59.886Z,50.53
2018-09-17T17:11:30.365Z,49.33
2018-09-17T17:14:00.347Z,51.51
2018-09-17T17:16:30.890Z,51.51
2018-09-17T17:19:07.109Z,50.96
2018-09-17T17:21:37.620Z,50.59
2018-09-17T17:27:01.369Z,51.97
2018-09-17T17:29:33.618Z,52.35
2018-09-17T17:32:08.199Z,52.19
2018-09-17T17:34:38.309Z,52.07
2018-09-17T17:37:13.576Z,53.22
2018-09-17T17:39:43.855Z,52.83
2018-09-17T17:42:15.378Z,54.38
2018-09-17T17:44:46.802Z,54.25
2018-09-17T17:47:19.425Z,54.54
2018-09-17T17:49:51.407Z,54.99
2018-09-17T17:52:22.646Z,55.97
2018-09-17T17:55:05.983Z,55.59
2018-09-17T17:57:39.427Z,56.78
2018-09-17T18:00:12.602Z,56.48
2018-09-17T18:03:15.546Z,57.04
2018-09-17T18:05:48.577Z,56.72
2018-09-17T18:08:20.745Z,57.48
2018-09-17T18:10:51.717Z,57.45
2018-09-17T18:13:23.612Z,57.86
2018-09-17T18:15:55.131Z,58.60
2018-09-17T18:18:28.268Z,58.67
2018-09-17T18:21:01.389Z,59.59
2018-09-17T18:23:37.953Z,58.32
2018-09-17T18:26:12.715Z,58.42
2018-09-17T18:28:45.714Z,59.37
2018-09-17T18:31:17.127Z,59.44
2018-09-17T18:33:49.711Z,60.62
2018-09-17T18:36:24.776Z,61.21
2018-09-17T18:38:59.223Z,59.77
2018-09-17T18:41:30.549Z,60.68
2018-09-17T18:44:07.260Z,59.67
2018-09-17T18:46:44.415Z,60.83
2018-09-17T18:52:21.444Z,61.45
2018-09-17T18:55:04.483Z,61.39
2018-09-17T18:57:41.438Z,60.99
2018-09-17T19:00:23.444Z,61.22
2018-09-17T19:02:58.377Z,62.37
2018-09-17T19:05:37.432Z,62.08
2018-09-17T19:08:14.377Z,62.17
2018-09-17T19:10:45.946Z,62.04
2018-09-17T19:13:16.368Z,62.60
2018-09-17T19:15:53.972Z,61.86
2018-09-17T19:18:31.285Z,61.67
2018-09-17T19:21:09.991Z,62.33
2018-09-17T19:23:47.617Z,62.41
2018-09-17T19:26:21.808Z,62.29
2018-09-17T19:29:00.555Z,62.74
2018-09-17T19:31:30.828Z,62.95
2018-09-17T19:34:02.752Z,62.63
2018-09-17T19:36:40.710Z,62.76
2018-09-17T19:39:21.316Z,62.86
2018-09-17T19:41:56.027Z,62.64
2018-09-17T19:44:31.418Z,62.72
2018-09-17T19:47:05.411Z,63.73
2018-09-17T19:52:33.785Z,62.52
2018-09-17T19:55:09.358Z,63.19
2018-09-17T19:57:44.505Z,62.94
2018-09-17T20:00:15.880Z,63.51
2018-09-17T20:02:46.861Z,64.28
2018-09-17T20:05:25.085Z,63.94
2018-09-17T20:07:56.649Z,64.02
2018-09-17T20:10:29.022Z,64.28
2018-09-17T20:13:01.647Z,64.76
2018-09-17T20:15:32.864Z,63.96
2018-09-17T20:18:07.041Z,64.04
2018-09-17T20:20:37.325Z,64.90
2018-09-17T20:23:07.998Z,65.04
2018-09-17T20:26:10.672Z,65.79
2018-09-17T20:28:42.475Z,65.73
2018-09-17T20:31:19.740Z,64.90
2018-09-17T20:33:50.681Z,66.78
2018-09-17T20:36:24.520Z,66.31
2018-09-17T20:38:56.656Z,67.00
2018-09-17T20:41:26.747Z,65.82
2018-09-17T20:43:57.848Z,65.97
2018-09-17T20:46:28.368Z,66.60
2018-09-17T20:48:58.911Z,65.95
2018-09-17T20:51:34.227Z,66.29
2018-09-17T20:54:10.469Z,66.94
2018-09-17T20:56:41.572Z,67.03
2018-09-17T20:59:12.628Z,66.58
2018-09-17T21:01:47.034Z,67.19
2018-09-17T21:04:20.400Z,67.46
2018-09-17T21:06:52.285Z,67.54
2018-09-17T21:09:25.484Z,67.37
2018-09-17T21:11:55.599Z,67.37
2018-09-17T21:14:27.822Z,66.66
2018-09-17T21:16:59.525Z,67.45
2018-09-17T21:19:30.898Z,67.64
2018-09-17T21:22:02.838Z,68.48
2018-09-17T21:24:40.919Z,68.22
2018-09-17T21:27:11.915Z,66.98
2018-09-17T21:29:46.990Z,68.61
2018-09-17T21:32:20.849Z,69.02
2018-09-17T21:34:52.007Z,68.59
2018-09-17T21:37:24.522Z,69.47
2018-09-17T21:39:54.575Z,70.06
2018-09-17T21:42:26.430Z,69.97
2018-09-17T21:44:56.187Z,70.42
2018-09-17T21:47:27.363Z,69.77
2018-09-17T21:49:56.652Z,70.07
2018-09-17T21:52:27.529Z,71.07
2018-09-17T21:54:58.103Z,69.77
2018-09-17T21:57:28.353Z,68.94
2018-09-17T21:59:57.645Z,69.25
2018-09-17T22:02:26.990Z,69.29
2018-09-17T22:04:56.818Z,68.23
2018-09-17T22:07:26.984Z,68.36
2018-09-17T22:09:56.611Z,68.30
2018-09-17T22:12:25.967Z,68.21
2018-09-17T22:14:55.322Z,67.47
2018-09-17T22:17:24.683Z,66.53
2018-09-17T22:19:54.625Z,66.05
2018-09-17T22:22:23.902Z,66.35
2018-09-17T22:24:53.210Z,65.57
2018-09-17T22:27:26.102Z,64.97
2018-09-17T22:29:55.499Z,65.07
2018-09-17T22:32:24.815Z,64.07
2018-09-17T22:34:56.184Z,64.48
2018-09-17T22:37:26.791Z,63.98
2018-09-17T22:39:56.147Z,64.49
2018-09-17T22:42:25.807Z,64.48
2018-09-17T22:44:55.101Z,64.01
2018-09-17T22:47:24.863Z,64.38
2018-09-17T22:49:54.155Z,64.36
2018-09-17T22:52:24.395Z,64.76
2018-09-17T22:54:53.731Z,64.26
2018-09-17T22:57:23.033Z,64.06
2018-09-17T22:59:52.309Z,63.91
2018-09-17T23:02:23.635Z,63.27
2018-09-17T23:04:53.012Z,63.60
2018-09-17T23:07:22.303Z,63.00
2018-09-17T23:09:53.187Z,63.97
2018-09-17T23:12:24.833Z,63.68
2018-09-17T23:14:54.416Z,64.13
2018-09-17T23:17:24.415Z,63.71
2018-09-17T23:19:54.270Z,63.70
2018-09-17T23:22:23.595Z,63.06
2018-09-17T23:24:53.790Z,63.60
2018-09-17T23:27:23.470Z,64.22
2018-09-17T23:29:52.879Z,63.93
2018-09-17T23:32:22.225Z,64.39
2018-09-17T23:34:52.155Z,64.00
2018-09-17T23:37:22.385Z,64.09
2018-09-17T23:39:51.710Z,64.36
2018-09-17T23:42:21.335Z,63.41
2018-09-17T23:44:50.629Z,63.21
2018-09-17T23:47:20.582Z,63.70
2018-09-17T23:49:50.771Z,63.28
2018-09-17T23:52:20.116Z,63.21
2018-09-17T23:54:49.454Z,62.75
2018-09-17T23:57:18.780Z,63.32
2018-09-17T23:59:48.100Z,64.08
